sensor_id;sensor_type;location;lat;lon;timestamp;P1;durP1;ratioP1;P2;durP2;ratioP2
2620;SDS011;1320;48.128;11.592;2022-12-29T00:02:15;2.00;;;1.10;;
2620;SDS011;1320;48.128;11.592;2022-12-29T00:04:41;1.10;;;0.90;;
2620;SDS011;1320;48.128;11.592;2022-12-29T00:07:07;3.43;;;1.00;;
2620;SDS011;1320;48.128;11.592;2022-12-29T00:09:33;1.98;;;1.25;;
2620;SDS011;1320;48.128;11.592;2022-12-29T00:11:59;1.13;;;1.02;;
2620;SDS011;1320;48.128;11.592;2022-12-29T00:14:26;1.00;;;0.90;;
2620;SDS011;1320;48.128;11.592;2022-12-29T00:17:10;1.08;;;0.98;;
2620;SDS011;1320;48.128;11.592;2022-12-29T00:19:37;1.42;;;0.80;;
2620;SDS011;1320;48.128;11.592;2022-12-29T00:22:21;1.20;;;1.08;;
2620;SDS011;1320;48.128;11.592;2022-12-29T00:25:07;1.55;;;0.70;;
2620;SDS011;1320;48.128;11.592;2022-12-29T00:27:52;1.10;;;1.00;;
2620;SDS011;1320;48.128;11.592;2022-12-29T00:30:36;1.15;;;1.05;;
2620;SDS011;1320;48.128;11.592;2022-12-29T00:33:21;1.00;;;0.90;;
2620;SDS011;1320;48.128;11.592;2022-12-29T00:36:23;1.20;;;0.90;;
2620;SDS011;1320;48.128;11.592;2022-12-29T00:39:02;0.80;;;0.80;;
2620;SDS011;1320;48.128;11.592;2022-12-29T00:41:50;1.10;;;0.90;;
2620;SDS011;1320;48.128;11.592;2022-12-29T00:44:35;1.30;;;0.77;;
2620;SDS011;1320;48.128;11.592;2022-12-29T00:47:00;1.10;;;0.90;;
2620;SDS011;1320;48.128;11.592;2022-12-29T00:49:29;1.15;;;0.80;;
2620;SDS011;1320;48.128;11.592;2022-12-29T00:51:56;1.00;;;0.90;;
2620;SDS011;1320;48.128;11.592;2022-12-29T00:54:22;0.98;;;0.80;;
2620;SDS011;1320;48.128;11.592;2022-12-29T00:56:48;1.30;;;1.20;;
2620;SDS011;1320;48.128;11.592;2022-12-29T00:59:15;1.10;;;1.00;;
2620;SDS011;1320;48.128;11.592;2022-12-29T01:01:40;1.10;;;0.93;;
2620;SDS011;1320;48.128;11.592;2022-12-29T01:04:07;1.00;;;0.90;;
2620;SDS011;1320;48.128;11.592;2022-12-29T01:06:33;1.30;;;1.17;;
2620;SDS011;1320;48.128;11.592;2022-12-29T01:09:00;1.08;;;0.98;;
2620;SDS011;1320;48.128;11.592;2022-12-29T01:11:44;1.00;;;0.80;;
2620;SDS011;1320;48.128;11.592;2022-12-29T01:14:10;1.57;;;0.80;;
2620;SDS011;1320;48.128;11.592;2022-12-29T01:16:35;0.97;;;0.80;;
2620;SDS011;1320;48.128;11.592;2022-12-29T01:19:01;1.20;;;1.10;;
2620;SDS011;1320;48.128;11.592;2022-12-29T01:21:28;1.15;;;0.98;;
2620;SDS011;1320;48.128;11.592;2022-12-29T01:23:53;1.43;;;1.23;;
2620;SDS011;1320;48.128;11.592;2022-12-29T01:26:19;1.03;;;0.87;;
2620;SDS011;1320;48.128;11.592;2022-12-29T01:28:45;1.70;;;0.90;;
2620;SDS011;1320;48.128;11.592;2022-12-29T01:31:11;1.50;;;0.90;;
2620;SDS011;1320;48.128;11.592;2022-12-29T01:33:38;2.75;;;1.17;;
2620;SDS011;1320;48.128;11.592;2022-12-29T01:36:06;1.17;;;1.00;;
2620;SDS011;1320;48.128;11.592;2022-12-29T01:38:34;1.25;;;1.15;;
2620;SDS011;1320;48.128;11.592;2022-12-29T01:41:01;1.00;;;0.75;;
2620;SDS011;1320;48.128;11.592;2022-12-29T01:46:21;1.70;;;1.00;;
2620;SDS011;1320;48.128;11.592;2022-12-29T01:48:55;0.90;;;0.75;;
2620;SDS011;1320;48.128;11.592;2022-12-29T01:51:28;0.93;;;0.80;;
2620;SDS011;1320;48.128;11.592;2022-12-29T01:53:57;1.08;;;0.95;;
2620;SDS011;1320;48.128;11.592;2022-12-29T01:56:24;2.10;;;0.95;;
2620;SDS011;1320;48.128;11.592;2022-12-29T01:58:52;0.90;;;0.80;;
2620;SDS011;1320;48.128;11.592;2022-12-29T02:01:23;0.80;;;0.80;;
2620;SDS011;1320;48.128;11.592;2022-12-29T02:03:49;0.87;;;0.80;;
2620;SDS011;1320;48.128;11.592;2022-12-29T02:06:17;1.65;;;1.00;;
2620;SDS011;1320;48.128;11.592;2022-12-29T02:08:51;0.90;;;0.68;;
2620;SDS011;1320;48.128;11.592;2022-12-29T02:11:18;1.10;;;0.88;;
2620;SDS011;1320;48.128;11.592;2022-12-29T02:13:46;1.35;;;0.88;;
2620;SDS011;1320;48.128;11.592;2022-12-29T02:31:07;0.73;;;0.65;;
2620;SDS011;1320;48.128;11.592;2022-12-29T02:36:58;1.10;;;1.00;;
2620;SDS011;1320;48.128;11.592;2022-12-29T02:47:30;1.15;;;1.05;;
2620;SDS011;1320;48.128;11.592;2022-12-29T02:52:54;0.80;;;0.77;;
2620;SDS011;1320;48.128;11.592;2022-12-29T02:55:24;1.10;;;1.00;;
2620;SDS011;1320;48.128;11.592;2022-12-29T02:58:06;1.35;;;0.90;;
2620;SDS011;1320;48.128;11.592;2022-12-29T03:00:43;0.80;;;0.80;;
2620;SDS011;1320;48.128;11.592;2022-12-29T03:08:54;1.38;;;1.05;;
2620;SDS011;1320;48.128;11.592;2022-12-29T03:11:58;0.80;;;0.60;;
2620;SDS011;1320;48.128;11.592;2022-12-29T03:20:08;0.90;;;0.77;;
2620;SDS011;1320;48.128;11.592;2022-12-29T03:22:41;0.90;;;0.77;;
2620;SDS011;1320;48.128;11.592;2022-12-29T03:25:13;0.98;;;0.82;;
2620;SDS011;1320;48.128;11.592;2022-12-29T03:28:03;1.65;;;0.90;;
2620;SDS011;1320;48.128;11.592;2022-12-29T03:30:33;0.80;;;0.80;;
2620;SDS011;1320;48.128;11.592;2022-12-29T03:33:04;1.02;;;0.73;;
2620;SDS011;1320;48.128;11.592;2022-12-29T03:35:36;1.00;;;0.70;;
2620;SDS011;1320;48.128;11.592;2022-12-29T03:40:30;2.00;;;0.93;;
2620;SDS011;1320;48.128;11.592;2022-12-29T03:42:59;0.80;;;0.80;;
2620;SDS011;1320;48.128;11.592;2022-12-29T03:45:26;1.97;;;0.93;;
2620;SDS011;1320;48.128;11.592;2022-12-29T03:47:52;0.83;;;0.70;;
2620;SDS011;1320;48.128;11.592;2022-12-29T03:50:18;1.10;;;0.90;;
2620;SDS011;1320;48.128;11.592;2022-12-29T03:52:44;0.80;;;0.80;;
2620;SDS011;1320;48.128;11.592;2022-12-29T03:55:09;1.80;;;0.80;;
2620;SDS011;1320;48.128;11.592;2022-12-29T03:57:35;0.80;;;0.80;;
2620;SDS011;1320;48.128;11.592;2022-12-29T04:00:01;0.80;;;0.70;;
2620;SDS011;1320;48.128;11.592;2022-12-29T04:02:28;1.02;;;0.88;;
2620;SDS011;1320;48.128;11.592;2022-12-29T04:04:54;1.10;;;1.00;;
2620;SDS011;1320;48.128;11.592;2022-12-29T04:07:20;0.80;;;0.60;;
2620;SDS011;1320;48.128;11.592;2022-12-29T04:09:45;1.00;;;0.90;;
2620;SDS011;1320;48.128;11.592;2022-12-29T04:12:11;1.20;;;1.00;;
2620;SDS011;1320;48.128;11.592;2022-12-29T04:14:36;1.00;;;0.90;;
2620;SDS011;1320;48.128;11.592;2022-12-29T04:17:02;1.00;;;0.90;;
2620;SDS011;1320;48.128;11.592;2022-12-29T04:19:28;0.87;;;0.80;;
2620;SDS011;1320;48.128;11.592;2022-12-29T04:21:53;1.20;;;0.77;;
2620;SDS011;1320;48.128;11.592;2022-12-29T04:24:19;0.90;;;0.80;;
2620;SDS011;1320;48.128;11.592;2022-12-29T04:26:45;1.10;;;0.83;;
2620;SDS011;1320;48.128;11.592;2022-12-29T04:29:10;1.10;;;0.83;;
2620;SDS011;1320;48.128;11.592;2022-12-29T04:31:36;0.77;;;0.70;;
2620;SDS011;1320;48.128;11.592;2022-12-29T04:34:02;0.90;;;0.70;;
2620;SDS011;1320;48.128;11.592;2022-12-29T04:36:27;0.90;;;0.80;;
2620;SDS011;1320;48.128;11.592;2022-12-29T04:38:53;0.93;;;0.80;;
2620;SDS011;1320;48.128;11.592;2022-12-29T04:41:19;0.80;;;0.80;;
2620;SDS011;1320;48.128;11.592;2022-12-29T04:43:45;0.93;;;0.83;;
2620;SDS011;1320;48.128;11.592;2022-12-29T04:46:10;0.90;;;0.80;;
2620;SDS011;1320;48.128;11.592;2022-12-29T04:48:36;1.37;;;0.90;;
2620;SDS011;1320;48.128;11.592;2022-12-29T04:51:01;3.10;;;1.27;;
2620;SDS011;1320;48.128;11.592;2022-12-29T04:53:27;0.97;;;0.90;;
2620;SDS011;1320;48.128;11.592;2022-12-29T04:55:53;1.00;;;0.90;;
2620;SDS011;1320;48.128;11.592;2022-12-29T04:58:19;1.00;;;0.90;;
2620;SDS011;1320;48.128;11.592;2022-12-29T05:00:45;1.40;;;1.30;;
2620;SDS011;1320;48.128;11.592;2022-12-29T05:03:10;1.27;;;0.80;;
2620;SDS011;1320;48.128;11.592;2022-12-29T05:05:36;0.90;;;0.80;;
2620;SDS011;1320;48.128;11.592;2022-12-29T05:08:02;0.97;;;0.90;;
2620;SDS011;1320;48.128;11.592;2022-12-29T05:10:27;2.10;;;1.10;;
2620;SDS011;1320;48.128;11.592;2022-12-29T05:12:53;1.33;;;0.80;;
2620;SDS011;1320;48.128;11.592;2022-12-29T05:15:19;0.97;;;0.77;;
2620;SDS011;1320;48.128;11.592;2022-12-29T05:17:44;0.97;;;0.87;;
2620;SDS011;1320;48.128;11.592;2022-12-29T05:20:10;0.90;;;0.80;;
2620;SDS011;1320;48.128;11.592;2022-12-29T05:22:36;1.00;;;0.80;;
2620;SDS011;1320;48.128;11.592;2022-12-29T05:25:02;0.90;;;0.80;;
2620;SDS011;1320;48.128;11.592;2022-12-29T05:27:28;0.90;;;0.90;;
2620;SDS011;1320;48.128;11.592;2022-12-29T05:29:54;1.40;;;1.10;;
2620;SDS011;1320;48.128;11.592;2022-12-29T05:32:19;1.63;;;1.00;;
2620;SDS011;1320;48.128;11.592;2022-12-29T05:34:45;0.97;;;0.87;;
2620;SDS011;1320;48.128;11.592;2022-12-29T05:37:11;1.47;;;0.90;;
2620;SDS011;1320;48.128;11.592;2022-12-29T05:39:37;1.23;;;1.00;;
2620;SDS011;1320;48.128;11.592;2022-12-29T05:42:02;0.90;;;0.80;;
2620;SDS011;1320;48.128;11.592;2022-12-29T05:44:28;0.70;;;0.70;;
2620;SDS011;1320;48.128;11.592;2022-12-29T05:46:54;1.43;;;1.33;;
2620;SDS011;1320;48.128;11.592;2022-12-29T05:49:19;0.90;;;0.80;;
2620;SDS011;1320;48.128;11.592;2022-12-29T05:51:45;0.80;;;0.73;;
2620;SDS011;1320;48.128;11.592;2022-12-29T05:54:11;1.00;;;0.87;;
2620;SDS011;1320;48.128;11.592;2022-12-29T05:56:36;1.17;;;1.00;;
2620;SDS011;1320;48.128;11.592;2022-12-29T05:59:02;2.20;;;1.23;;
2620;SDS011;1320;48.128;11.592;2022-12-29T06:01:27;1.67;;;1.10;;
2620;SDS011;1320;48.128;11.592;2022-12-29T06:03:53;0.90;;;0.80;;
2620;SDS011;1320;48.128;11.592;2022-12-29T06:06:19;0.97;;;0.97;;
2620;SDS011;1320;48.128;11.592;2022-12-29T06:08:45;1.57;;;0.80;;
2620;SDS011;1320;48.128;11.592;2022-12-29T06:11:10;1.33;;;1.00;;
2620;SDS011;1320;48.128;11.592;2022-12-29T06:13:36;1.73;;;0.90;;
2620;SDS011;1320;48.128;11.592;2022-12-29T06:16:02;1.40;;;1.00;;
2620;SDS011;1320;48.128;11.592;2022-12-29T06:18:27;1.87;;;1.77;;
2620;SDS011;1320;48.128;11.592;2022-12-29T06:20:53;1.73;;;1.00;;
2620;SDS011;1320;48.128;11.592;2022-12-29T06:23:19;1.27;;;1.17;;
2620;SDS011;1320;48.128;11.592;2022-12-29T06:25:46;2.17;;;1.37;;
2620;SDS011;1320;48.128;11.592;2022-12-29T06:28:13;1.00;;;0.90;;
2620;SDS011;1320;48.128;11.592;2022-12-29T06:30:39;0.70;;;0.60;;
2620;SDS011;1320;48.128;11.592;2022-12-29T06:33:04;1.00;;;0.90;;
2620;SDS011;1320;48.128;11.592;2022-12-29T06:35:30;1.43;;;1.07;;
2620;SDS011;1320;48.128;11.592;2022-12-29T06:37:56;1.70;;;1.30;;
2620;SDS011;1320;48.128;11.592;2022-12-29T06:40:21;2.30;;;1.00;;
2620;SDS011;1320;48.128;11.592;2022-12-29T06:42:48;2.07;;;1.07;;
2620;SDS011;1320;48.128;11.592;2022-12-29T06:45:13;0.90;;;0.80;;
2620;SDS011;1320;48.128;11.592;2022-12-29T06:47:39;1.10;;;0.90;;
2620;SDS011;1320;48.128;11.592;2022-12-29T06:50:05;2.03;;;1.00;;
2620;SDS011;1320;48.128;11.592;2022-12-29T06:52:31;1.27;;;1.17;;
2620;SDS011;1320;48.128;11.592;2022-12-29T06:54:56;0.80;;;0.80;;
2620;SDS011;1320;48.128;11.592;2022-12-29T06:57:22;2.13;;;1.00;;
2620;SDS011;1320;48.128;11.592;2022-12-29T06:59:48;3.67;;;1.20;;
2620;SDS011;1320;48.128;11.592;2022-12-29T07:02:13;4.63;;;0.90;;
2620;SDS011;1320;48.128;11.592;2022-12-29T07:04:41;0.80;;;0.73;;
2620;SDS011;1320;48.128;11.592;2022-12-29T07:07:07;0.80;;;0.80;;
2620;SDS011;1320;48.128;11.592;2022-12-29T07:09:32;1.10;;;1.00;;
2620;SDS011;1320;48.128;11.592;2022-12-29T07:11:58;0.90;;;0.80;;
2620;SDS011;1320;48.128;11.592;2022-12-29T07:14:24;2.20;;;0.97;;
2620;SDS011;1320;48.128;11.592;2022-12-29T07:16:49;1.77;;;1.00;;
2620;SDS011;1320;48.128;11.592;2022-12-29T07:19:15;0.90;;;0.80;;
2620;SDS011;1320;48.128;11.592;2022-12-29T07:21:41;2.20;;;1.20;;
2620;SDS011;1320;48.128;11.592;2022-12-29T07:24:07;1.30;;;1.10;;
2620;SDS011;1320;48.128;11.592;2022-12-29T07:26:32;0.97;;;0.90;;
2620;SDS011;1320;48.128;11.592;2022-12-29T07:29:00;1.47;;;1.10;;
2620;SDS011;1320;48.128;11.592;2022-12-29T07:31:26;0.90;;;0.90;;
2620;SDS011;1320;48.128;11.592;2022-12-29T07:33:51;1.93;;;1.40;;
2620;SDS011;1320;48.128;11.592;2022-12-29T07:36:17;2.20;;;0.97;;
2620;SDS011;1320;48.128;11.592;2022-12-29T07:38:43;1.07;;;0.97;;
2620;SDS011;1320;48.128;11.592;2022-12-29T07:41:08;1.30;;;0.97;;
2620;SDS011;1320;48.128;11.592;2022-12-29T07:43:34;1.10;;;1.00;;
2620;SDS011;1320;48.128;11.592;2022-12-29T07:46:00;1.67;;;1.07;;
2620;SDS011;1320;48.128;11.592;2022-12-29T07:48:26;1.47;;;1.10;;
2620;SDS011;1320;48.128;11.592;2022-12-29T07:50:52;1.10;;;1.00;;
2620;SDS011;1320;48.128;11.592;2022-12-29T07:53:18;1.23;;;1.13;;
2620;SDS011;1320;48.128;11.592;2022-12-29T07:55:45;1.53;;;0.90;;
2620;SDS011;1320;48.128;11.592;2022-12-29T07:58:10;2.20;;;1.10;;
2620;SDS011;1320;48.128;11.592;2022-12-29T08:00:37;1.70;;;1.10;;
2620;SDS011;1320;48.128;11.592;2022-12-29T08:03:04;2.07;;;1.03;;
2620;SDS011;1320;48.128;11.592;2022-12-29T08:05:33;1.10;;;1.00;;
2620;SDS011;1320;48.128;11.592;2022-12-29T08:07:59;0.90;;;0.80;;
2620;SDS011;1320;48.128;11.592;2022-12-29T08:10:25;1.37;;;0.90;;
2620;SDS011;1320;48.128;11.592;2022-12-29T08:12:50;1.17;;;1.07;;
2620;SDS011;1320;48.128;11.592;2022-12-29T08:15:16;5.77;;;1.30;;
2620;SDS011;1320;48.128;11.592;2022-12-29T08:17:42;1.37;;;1.07;;
2620;SDS011;1320;48.128;11.592;2022-12-29T08:20:07;1.03;;;0.90;;
2620;SDS011;1320;48.128;11.592;2022-12-29T08:22:34;1.40;;;1.30;;
2620;SDS011;1320;48.128;11.592;2022-12-29T08:24:59;1.10;;;0.80;;
2620;SDS011;1320;48.128;11.592;2022-12-29T08:27:25;1.57;;;1.10;;
2620;SDS011;1320;48.128;11.592;2022-12-29T08:29:51;1.43;;;1.23;;
2620;SDS011;1320;48.128;11.592;2022-12-29T08:32:17;0.90;;;0.80;;
2620;SDS011;1320;48.128;11.592;2022-12-29T08:34:43;1.20;;;1.10;;
2620;SDS011;1320;48.128;11.592;2022-12-29T08:37:08;1.07;;;0.97;;
2620;SDS011;1320;48.128;11.592;2022-12-29T08:39:34;1.00;;;0.90;;
2620;SDS011;1320;48.128;11.592;2022-12-29T08:41:59;1.40;;;0.93;;
2620;SDS011;1320;48.128;11.592;2022-12-29T08:44:25;1.70;;;1.20;;
2620;SDS011;1320;48.128;11.592;2022-12-29T08:46:51;0.90;;;0.90;;
2620;SDS011;1320;48.128;11.592;2022-12-29T08:49:17;2.30;;;1.30;;
2620;SDS011;1320;48.128;11.592;2022-12-29T08:51:42;1.10;;;1.00;;
2620;SDS011;1320;48.128;11.592;2022-12-29T08:54:08;1.43;;;1.23;;
2620;SDS011;1320;48.128;11.592;2022-12-29T08:56:34;1.20;;;1.10;;
2620;SDS011;1320;48.128;11.592;2022-12-29T08:58:59;1.00;;;0.90;;
2620;SDS011;1320;48.128;11.592;2022-12-29T09:01:25;1.10;;;1.00;;
2620;SDS011;1320;48.128;11.592;2022-12-29T09:03:50;1.33;;;1.23;;
2620;SDS011;1320;48.128;11.592;2022-12-29T09:06:17;1.50;;;1.17;;
2620;SDS011;1320;48.128;11.592;2022-12-29T09:08:43;2.53;;;1.33;;
2620;SDS011;1320;48.128;11.592;2022-12-29T09:11:10;1.57;;;1.20;;
2620;SDS011;1320;48.128;11.592;2022-12-29T09:13:38;1.23;;;1.00;;
2620;SDS011;1320;48.128;11.592;2022-12-29T09:16:04;2.50;;;0.90;;
2620;SDS011;1320;48.128;11.592;2022-12-29T09:18:30;1.83;;;1.10;;
2620;SDS011;1320;48.128;11.592;2022-12-29T09:21:00;1.77;;;1.17;;
2620;SDS011;1320;48.128;11.592;2022-12-29T09:23:26;1.53;;;1.30;;
2620;SDS011;1320;48.128;11.592;2022-12-29T09:25:52;1.93;;;1.17;;
2620;SDS011;1320;48.128;11.592;2022-12-29T09:28:19;2.00;;;1.07;;
2620;SDS011;1320;48.128;11.592;2022-12-29T09:30:45;1.50;;;1.17;;
2620;SDS011;1320;48.128;11.592;2022-12-29T09:33:11;5.60;;;0.90;;
2620;SDS011;1320;48.128;11.592;2022-12-29T09:35:41;0.97;;;0.87;;
2620;SDS011;1320;48.128;11.592;2022-12-29T09:38:09;2.67;;;0.90;;
2620;SDS011;1320;48.128;11.592;2022-12-29T09:40:35;1.20;;;1.00;;
2620;SDS011;1320;48.128;11.592;2022-12-29T09:43:15;1.40;;;1.30;;
2620;SDS011;1320;48.128;11.592;2022-12-29T09:46:11;1.50;;;1.13;;
2620;SDS011;1320;48.128;11.592;2022-12-29T09:48:36;1.10;;;1.00;;
2620;SDS011;1320;48.128;11.592;2022-12-29T09:51:08;1.63;;;1.20;;
2620;SDS011;1320;48.128;11.592;2022-12-29T09:53:39;1.30;;;1.03;;
2620;SDS011;1320;48.128;11.592;2022-12-29T09:56:19;1.20;;;1.10;;
2620;SDS011;1320;48.128;11.592;2022-12-29T09:59:04;1.33;;;1.20;;
2620;SDS011;1320;48.128;11.592;2022-12-29T10:01:41;1.40;;;1.30;;
2620;SDS011;1320;48.128;11.592;2022-12-29T10:04:27;1.20;;;0.90;;
2620;SDS011;1320;48.128;11.592;2022-12-29T10:23:57;1.00;;;0.90;;
2620;SDS011;1320;48.128;11.592;2022-12-29T10:26:27;1.17;;;1.00;;
2620;SDS011;1320;48.128;11.592;2022-12-29T10:31:36;3.53;;;1.20;;
2620;SDS011;1320;48.128;11.592;2022-12-29T10:34:06;1.07;;;0.87;;
2620;SDS011;1320;48.128;11.592;2022-12-29T10:36:44;1.53;;;1.10;;
2620;SDS011;1320;48.128;11.592;2022-12-29T10:44:17;1.00;;;0.90;;
2620;SDS011;1320;48.128;11.592;2022-12-29T10:46:47;1.60;;;1.10;;
2620;SDS011;1320;48.128;11.592;2022-12-29T10:49:23;1.60;;;1.10;;
2620;SDS011;1320;48.128;11.592;2022-12-29T10:51:51;1.00;;;0.90;;
2620;SDS011;1320;48.128;11.592;2022-12-29T10:54:25;3.53;;;1.37;;
2620;SDS011;1320;48.128;11.592;2022-12-29T10:56:56;1.47;;;1.37;;
2620;SDS011;1320;48.128;11.592;2022-12-29T10:59:36;1.10;;;1.00;;
2620;SDS011;1320;48.128;11.592;2022-12-29T11:07:02;2.17;;;1.17;;
2620;SDS011;1320;48.128;11.592;2022-12-29T11:09:29;1.33;;;1.00;;
2620;SDS011;1320;48.128;11.592;2022-12-29T11:11:58;1.47;;;1.33;;
2620;SDS011;1320;48.128;11.592;2022-12-29T11:14:26;3.10;;;1.53;;
2620;SDS011;1320;48.128;11.592;2022-12-29T11:16:57;3.67;;;1.20;;
2620;SDS011;1320;48.128;11.592;2022-12-29T11:19:25;1.20;;;1.10;;
2620;SDS011;1320;48.128;11.592;2022-12-29T11:21:53;3.10;;;1.30;;
2620;SDS011;1320;48.128;11.592;2022-12-29T11:26:53;3.63;;;1.60;;
2620;SDS011;1320;48.128;11.592;2022-12-29T11:29:40;2.73;;;2.10;;
2620;SDS011;1320;48.128;11.592;2022-12-29T11:32:18;1.40;;;1.20;;
2620;SDS011;1320;48.128;11.592;2022-12-29T11:34:45;1.20;;;1.00;;
2620;SDS011;1320;48.128;11.592;2022-12-29T11:37:13;1.63;;;1.00;;
2620;SDS011;1320;48.128;11.592;2022-12-29T11:45:20;1.13;;;0.93;;
2620;SDS011;1320;48.128;11.592;2022-12-29T11:47:53;1.73;;;0.97;;
2620;SDS011;1320;48.128;11.592;2022-12-29T11:50:24;1.60;;;1.10;;
2620;SDS011;1320;48.128;11.592;2022-12-29T11:53:00;1.70;;;1.17;;
2620;SDS011;1320;48.128;11.592;2022-12-29T11:55:29;1.73;;;1.20;;
2620;SDS011;1320;48.128;11.592;2022-12-29T11:57:57;1.40;;;1.30;;
2620;SDS011;1320;48.128;11.592;2022-12-29T12:00:26;1.30;;;1.17;;
2620;SDS011;1320;48.128;11.592;2022-12-29T12:03:36;1.40;;;1.20;;
2620;SDS011;1320;48.128;11.592;2022-12-29T12:05:46;1.67;;;1.43;;
2620;SDS011;1320;48.128;11.592;2022-12-29T12:10:59;1.03;;;0.90;;
2620;SDS011;1320;48.128;11.592;2022-12-29T12:13:53;1.23;;;1.10;;
2620;SDS011;1320;48.128;11.592;2022-12-29T12:16:48;1.10;;;1.00;;
2620;SDS011;1320;48.128;11.592;2022-12-29T12:19:28;2.60;;;1.20;;
2620;SDS011;1320;48.128;11.592;2022-12-29T12:22:05;1.23;;;1.13;;
2620;SDS011;1320;48.128;11.592;2022-12-29T12:27:38;1.23;;;0.90;;
2620;SDS011;1320;48.128;11.592;2022-12-29T12:35:21;1.57;;;1.07;;
2620;SDS011;1320;48.128;11.592;2022-12-29T12:46:03;1.27;;;1.13;;
2620;SDS011;1320;48.128;11.592;2022-12-29T12:59:48;1.07;;;0.90;;
2620;SDS011;1320;48.128;11.592;2022-12-29T13:02:34;1.40;;;1.20;;
2620;SDS011;1320;48.128;11.592;2022-12-29T13:05:20;1.30;;;1.00;;
2620;SDS011;1320;48.128;11.592;2022-12-29T13:20:49;3.27;;;1.70;;
2620;SDS011;1320;48.128;11.592;2022-12-29T13:23:25;2.37;;;1.37;;
2620;SDS011;1320;48.128;11.592;2022-12-29T13:28:42;2.50;;;1.50;;
2620;SDS011;1320;48.128;11.592;2022-12-29T13:31:24;1.73;;;1.10;;
2620;SDS011;1320;48.128;11.592;2022-12-29T13:34:34;1.40;;;1.20;;
2620;SDS011;1320;48.128;11.592;2022-12-29T13:37:09;1.47;;;0.90;;
2620;SDS011;1320;48.128;11.592;2022-12-29T13:39:40;1.50;;;1.23;;
2620;SDS011;1320;48.128;11.592;2022-12-29T13:42:10;1.10;;;1.00;;
2620;SDS011;1320;48.128;11.592;2022-12-29T13:47:38;1.90;;;1.47;;
2620;SDS011;1320;48.128;11.592;2022-12-29T13:50:14;1.93;;;1.73;;
2620;SDS011;1320;48.128;11.592;2022-12-29T13:55:32;1.40;;;1.20;;
2620;SDS011;1320;48.128;11.592;2022-12-29T14:01:20;1.47;;;1.33;;
2620;SDS011;1320;48.128;11.592;2022-12-29T14:03:54;3.33;;;1.63;;
2620;SDS011;1320;48.128;11.592;2022-12-29T14:06:28;3.43;;;1.30;;
2620;SDS011;1320;48.128;11.592;2022-12-29T14:09:00;2.20;;;1.37;;
2620;SDS011;1320;48.128;11.592;2022-12-29T14:11:32;1.70;;;1.10;;
2620;SDS011;1320;48.128;11.592;2022-12-29T14:14:13;1.30;;;1.13;;
2620;SDS011;1320;48.128;11.592;2022-12-29T14:16:52;1.37;;;1.03;;
2620;SDS011;1320;48.128;11.592;2022-12-29T14:19:31;1.63;;;1.10;;
2620;SDS011;1320;48.128;11.592;2022-12-29T14:22:03;1.50;;;1.40;;
2620;SDS011;1320;48.128;11.592;2022-12-29T14:29:48;1.97;;;1.67;;
2620;SDS011;1320;48.128;11.592;2022-12-29T14:34:54;1.93;;;1.50;;
2620;SDS011;1320;48.128;11.592;2022-12-29T14:37:25;2.10;;;1.23;;
2620;SDS011;1320;48.128;11.592;2022-12-29T14:42:48;2.07;;;1.53;;
2620;SDS011;1320;48.128;11.592;2022-12-29T14:47:50;3.27;;;2.03;;
2620;SDS011;1320;48.128;11.592;2022-12-29T15:00:52;1.20;;;1.10;;
2620;SDS011;1320;48.128;11.592;2022-12-29T15:05:58;1.70;;;1.30;;
2620;SDS011;1320;48.128;11.592;2022-12-29T15:08:33;1.10;;;0.97;;
2620;SDS011;1320;48.128;11.592;2022-12-29T15:13:55;1.70;;;1.23;;
2620;SDS011;1320;48.128;11.592;2022-12-29T15:16:25;1.87;;;1.20;;
2620;SDS011;1320;48.128;11.592;2022-12-29T15:18:54;1.43;;;1.30;;
2620;SDS011;1320;48.128;11.592;2022-12-29T15:21:23;2.07;;;1.60;;
2620;SDS011;1320;48.128;11.592;2022-12-29T15:23:54;2.10;;;1.90;;
2620;SDS011;1320;48.128;11.592;2022-12-29T15:26:20;1.37;;;1.10;;
2620;SDS011;1320;48.128;11.592;2022-12-29T15:28:48;1.10;;;1.00;;
2620;SDS011;1320;48.128;11.592;2022-12-29T15:31:16;1.83;;;1.50;;
2620;SDS011;1320;48.128;11.592;2022-12-29T15:33:46;1.83;;;1.40;;
2620;SDS011;1320;48.128;11.592;2022-12-29T15:36:18;3.03;;;1.27;;
2620;SDS011;1320;48.128;11.592;2022-12-29T15:38:44;1.73;;;1.40;;
2620;SDS011;1320;48.128;11.592;2022-12-29T15:41:23;1.77;;;1.60;;
2620;SDS011;1320;48.128;11.592;2022-12-29T15:47:20;1.60;;;1.30;;
2620;SDS011;1320;48.128;11.592;2022-12-29T15:49:48;1.67;;;1.57;;
2620;SDS011;1320;48.128;11.592;2022-12-29T15:52:19;1.60;;;1.30;;
2620;SDS011;1320;48.128;11.592;2022-12-29T15:54:46;2.80;;;1.50;;
2620;SDS011;1320;48.128;11.592;2022-12-29T15:57:36;1.50;;;1.40;;
2620;SDS011;1320;48.128;11.592;2022-12-29T16:00:26;2.37;;;1.40;;
2620;SDS011;1320;48.128;11.592;2022-12-29T16:02:53;1.57;;;1.47;;
2620;SDS011;1320;48.128;11.592;2022-12-29T16:05:21;2.50;;;1.77;;
2620;SDS011;1320;48.128;11.592;2022-12-29T16:07:57;1.30;;;1.20;;
2620;SDS011;1320;48.128;11.592;2022-12-29T16:13:13;2.70;;;1.33;;
2620;SDS011;1320;48.128;11.592;2022-12-29T16:15:50;1.17;;;1.00;;
2620;SDS011;1320;48.128;11.592;2022-12-29T16:18:23;1.67;;;1.57;;
2620;SDS011;1320;48.128;11.592;2022-12-29T16:20:52;1.70;;;1.53;;
2620;SDS011;1320;48.128;11.592;2022-12-29T16:23:23;2.37;;;1.43;;
2620;SDS011;1320;48.128;11.592;2022-12-29T16:25:51;2.10;;;1.90;;
2620;SDS011;1320;48.128;11.592;2022-12-29T16:31:17;1.67;;;1.57;;
2620;SDS011;1320;48.128;11.592;2022-12-29T16:34:11;4.13;;;2.13;;
2620;SDS011;1320;48.128;11.592;2022-12-29T16:39:45;4.50;;;1.77;;
2620;SDS011;1320;48.128;11.592;2022-12-29T16:50:31;2.23;;;1.40;;
2620;SDS011;1320;48.128;11.592;2022-12-29T16:52:59;4.80;;;1.73;;
2620;SDS011;1320;48.128;11.592;2022-12-29T16:55:26;1.60;;;1.20;;
2620;SDS011;1320;48.128;11.592;2022-12-29T16:57:52;1.97;;;1.10;;
2620;SDS011;1320;48.128;11.592;2022-12-29T17:00:22;1.40;;;1.10;;
2620;SDS011;1320;48.128;11.592;2022-12-29T17:02:49;5.70;;;1.57;;
2620;SDS011;1320;48.128;11.592;2022-12-29T17:05:17;1.73;;;1.57;;
2620;SDS011;1320;48.128;11.592;2022-12-29T17:07:44;2.83;;;1.20;;
2620;SDS011;1320;48.128;11.592;2022-12-29T17:10:10;1.77;;;1.10;;
2620;SDS011;1320;48.128;11.592;2022-12-29T17:12:37;1.97;;;1.43;;
2620;SDS011;1320;48.128;11.592;2022-12-29T17:15:06;1.43;;;1.33;;
2620;SDS011;1320;48.128;11.592;2022-12-29T17:17:42;1.57;;;1.47;;
2620;SDS011;1320;48.128;11.592;2022-12-29T17:22:38;2.13;;;1.93;;
2620;SDS011;1320;48.128;11.592;2022-12-29T17:25:04;1.67;;;1.37;;
2620;SDS011;1320;48.128;11.592;2022-12-29T17:27:35;2.80;;;1.57;;
2620;SDS011;1320;48.128;11.592;2022-12-29T17:30:15;1.50;;;1.13;;
2620;SDS011;1320;48.128;11.592;2022-12-29T17:32:43;2.83;;;1.50;;
2620;SDS011;1320;48.128;11.592;2022-12-29T17:35:15;1.23;;;1.00;;
2620;SDS011;1320;48.128;11.592;2022-12-29T17:37:42;2.10;;;1.50;;
2620;SDS011;1320;48.128;11.592;2022-12-29T17:40:15;2.97;;;2.53;;
2620;SDS011;1320;48.128;11.592;2022-12-29T17:42:43;2.10;;;1.30;;
2620;SDS011;1320;48.128;11.592;2022-12-29T17:45:14;3.90;;;1.80;;
2620;SDS011;1320;48.128;11.592;2022-12-29T17:47:42;2.87;;;1.93;;
2620;SDS011;1320;48.128;11.592;2022-12-29T17:50:11;2.23;;;1.80;;
2620;SDS011;1320;48.128;11.592;2022-12-29T17:52:38;2.17;;;1.60;;
2620;SDS011;1320;48.128;11.592;2022-12-29T17:55:05;3.10;;;1.50;;
2620;SDS011;1320;48.128;11.592;2022-12-29T17:57:31;2.27;;;1.77;;
2620;SDS011;1320;48.128;11.592;2022-12-29T17:59:56;3.63;;;2.13;;
2620;SDS011;1320;48.128;11.592;2022-12-29T18:04:50;2.60;;;2.13;;
2620;SDS011;1320;48.128;11.592;2022-12-29T18:07:16;1.50;;;1.33;;
2620;SDS011;1320;48.128;11.592;2022-12-29T18:09:41;3.27;;;1.90;;
2620;SDS011;1320;48.128;11.592;2022-12-29T18:12:11;2.40;;;1.97;;
2620;SDS011;1320;48.128;11.592;2022-12-29T18:14:51;2.23;;;1.90;;
2620;SDS011;1320;48.128;11.592;2022-12-29T18:17:16;2.63;;;1.93;;
2620;SDS011;1320;48.128;11.592;2022-12-29T18:19:42;3.30;;;1.90;;
2620;SDS011;1320;48.128;11.592;2022-12-29T18:22:08;1.47;;;1.37;;
2620;SDS011;1320;48.128;11.592;2022-12-29T18:24:33;1.80;;;1.40;;
2620;SDS011;1320;48.128;11.592;2022-12-29T18:26:59;2.33;;;1.63;;
2620;SDS011;1320;48.128;11.592;2022-12-29T18:29:26;3.43;;;1.87;;